Historyczne dane pomiarowe

Dodano dane terminowe – wersja testowa.

Dane z okresu 1951-2019

Wersja bazy: 1.34 [2019-03-16, lista zmian], aktualizacja planowana na 2019-04-15

Dane meteo z obszaru Polski uzyskane na podstawie danych udostępnionych przez Instytut Meteorologii i Gospodarki Wodnej – Państwowy Instytut Badawczy.

 

Wybierz Datę:    

       

TemperaturaWilgotnośćWiatrCiśnienieOpadyŚniegCzas trwania zjawisk
 Stacja t tx tn tng RH VA  wxwx mslp ppp RRR   cm mm wxwxwxwxwxwxwx
1994-08-14 14.6 18.0 12.3 11.6 78.0- 6.3 4.7---- 0.0------------
1994-08-13 17.0 23.2 11.3 8.5 83.8- 7.0 1.0---- 5.0------------
1994-08-12 18.2 24.4 11.2 8.1 70.3- 4.7 1.0---- 0.0------------
1994-08-11 18.9 24.8 10.2 7.5 68.3- 4.0 0.7---- 0.0------------
1994-08-10 19.7 25.0 16.5 15.8 75.8- 4.0 2.0---- 0.0------------
1994-08-09 19.6 24.3 13.1 9.9 81.0- 6.7 1.0---- 24.7------------
1994-08-08 17.9 24.9 13.2 9.7 92.8- 8.0 0.7---- 2.4------------
1994-08-07 22.7 29.7 12.9 10.4 66.8- 5.7 0.7---- 0.0------------
1994-08-06 24.3 32.6 16.7 12.6 57.3- 1.7 0.7---- 0.0------------
1994-08-05 22.9 30.9 14.0 11.5 65.8- 3.7 0.7---- 0.0------------
1994-08-04 23.5 30.1 14.9 12.8 68.5- 3.3 0.7---- 0.0------------
1994-08-03 20.8 28.5 15.7 13.4 80.0- 4.7 1.0---- 0.0------------
1994-08-02 25.2 32.5 16.9 15.8 67.5- 3.7 0.7---- 0.0------------
1994-08-01 24.9 34.4 16.7 12.8 62.5- 4.0 1.0---- 4.3------------
1994-07-31 25.0 34.6 14.9 12.3 60.5- 3.0 0.3---- 0.0------------
1994-07-30 24.5 33.9 15.2 12.6 64.3- 0.7 0.3---- 0.0------------
1994-07-29 23.6 33.9 13.4 10.7 63.0- 0.7 0.7---- 0.0------------
1994-07-28 23.6 32.9 13.2 10.1 61.5- 0.7 1.0---- 0.0------------
1994-07-27 23.2 32.3 13.7 10.4 60.5- 2.7 0.7---- 0.0------------
1994-07-26 22.6 31.4 12.7 9.9 64.0- 3.3 0.7---- 0.0------------
1994-07-25 21.1 30.1 11.2 8.4 63.0- 4.0 0.3---- 0.0------------
1994-07-24 20.6 28.4 10.2 7.6 62.0- 2.7 0.7---- 0.0------------
1994-07-23 20.2 27.6 10.6 8.3 65.3- 4.3 0.7---- 0.0------------
1994-07-22 19.2 27.0 9.9 6.8 61.3- 2.7 1.0---- 0.0------------
1994-07-21 19.1 26.6 7.3 4.8 56.5- 2.0 2.0---- 0.0------------
1994-07-20 16.7 22.5 8.5 5.1 63.5- 2.7 1.0---- 0.0------------
1994-07-19 17.1 22.2 10.0 9.2 63.5- 3.0 1.3---- 0.0------------
1994-07-18 16.5 23.0 13.3 10.6 86.8- 7.3 0.0---- 2.5------------
1994-07-17 21.0 27.5 14.0 11.5 71.3- 6.0 1.3---- 0.3------------
1994-07-16 23.7 31.5 13.0 10.4 62.0- 2.7 1.3---- 0.0------------
1994-07-15 23.2 30.5 13.2 9.7 62.8- 0.3 0.7---- 0.0------------
1994-07-14 23.9 30.1 17.1 13.0 59.5- 2.0 2.0---- 0.0------------
1994-07-13 22.9 30.0 12.9 10.1 65.3- 4.0 0.3---- 0.0------------
1994-07-12 22.6 30.0 10.9 8.4 61.0- 2.7 2.3---- 0.0------------
1994-07-11 20.4 26.5 10.5 8.3 66.0- 3.0 1.0---- 0.0------------
1994-07-10 18.4 26.6 8.0 8.1 74.5- 4.7 0.7---- 0.4------------
1994-07-09 14.1 18.6 7.8 4.8 88.0- 7.3 0.7---- 0.7------------
1994-07-08 16.2 24.2 10.5 8.2 79.0- 6.3 1.0---- 1.9------------
1994-07-07 17.6 24.5 7.7 5.3 62.0- 2.0 0.7---- 0.0------------
1994-07-06 16.8 22.9 6.9 4.1 63.3- 3.0 0.3---- 0.0------------
1994-07-05 18.9 23.9 10.4 7.5 62.3- 2.7 0.7---- 0.0------------
1994-07-04 18.8 25.3 8.8 5.7 67.5- 4.3 1.0---- 0.0------------
1994-07-03 16.9 23.9 6.9 4.2 64.8- 1.0 0.7---- 0.0------------
1994-07-02 16.4 21.7 8.8 5.6 61.3- 0.3 2.3---- 0.0------------
1994-07-01 16.2 21.4 8.8 5.1 67.0- 3.7 2.0---- 0.0------------
1994-06-30 21.1 28.5 11.5 8.8 70.3- 4.7 2.0---- 0.8------------
1994-06-29 21.4 28.3 11.3 8.6 63.8- 0.0 0.7---- 0.0------------
1994-06-28 20.7 26.4 11.7 8.5 67.8- 0.7 1.3---- 0.0------------
1994-06-27 22.1 28.4 13.9 8.7 66.0- 2.0 1.7---- 0.0------------
1994-06-26 19.7 27.0 7.3 3.5 58.3- 0.0 0.7---- 0.0------------
1994-06-25 14.1 19.8 9.2 6.6 69.8- 4.7 1.7---- 0.0------------
1994-06-24 12.4 16.5 9.2 6.2 64.5- 6.3 5.7---- 0.0------------
1994-06-23 14.1 21.5 10.5 9.8 69.0- 4.7 4.3---- 1.6------------
1994-06-22 16.5 22.9 8.8 3.1 68.5- 6.7 5.0---- 2.1------------
1994-06-21 14.1 20.3 7.3 2.0 67.0- 3.3 1.3---- 0.0------------
1994-06-20 14.1 17.6 12.3 11.3 67.8- 5.0 4.0---- 0.0------------
1994-06-19 12.2 14.1 10.2 7.8 89.3- 8.0 2.7---- 2.4------------
1994-06-18 10.9 16.2 4.5 0.6 68.0- 5.0 2.0---- 0.7------------
1994-06-17 9.7 14.1 6.9 1.5 76.3- 5.7 3.3---- 2.5------------
1994-06-16 10.4 15.4 5.9 1.9 78.0- 7.3 2.3---- 1.4------------
200.4 ms

 

Źródłem pochodzenia danych jest Instytut Meteorologii i Gospodarki Wodnej – Państwowy Instytut Badawczy. Dane Instytutu Meteorologii i Gospodarki Wodnej – Państwowego Instytutu Badawczego zostały przetworzone.

Dane źródłowe można odnaleźć na stronie https://dane.imgw.pl